sensor_id;sensor_type;location;lat;lon;timestamp;P1;durP1;ratioP1;P2;durP2;ratioP2
12554;SDS011;6343;50.868;4.700;2022-12-07T00:02:23;11.80;;;7.73;;
12554;SDS011;6343;50.868;4.700;2022-12-07T00:04:49;11.30;;;7.30;;
12554;SDS011;6343;50.868;4.700;2022-12-07T00:07:16;12.23;;;7.83;;
12554;SDS011;6343;50.868;4.700;2022-12-07T00:09:42;14.20;;;7.50;;
12554;SDS011;6343;50.868;4.700;2022-12-07T00:12:08;12.20;;;8.17;;
12554;SDS011;6343;50.868;4.700;2022-12-07T00:14:34;9.57;;;7.20;;
12554;SDS011;6343;50.868;4.700;2022-12-07T00:17:00;11.70;;;7.53;;
12554;SDS011;6343;50.868;4.700;2022-12-07T00:19:26;13.10;;;8.13;;
12554;SDS011;6343;50.868;4.700;2022-12-07T00:21:52;15.03;;;8.03;;
12554;SDS011;6343;50.868;4.700;2022-12-07T00:24:18;9.93;;;7.87;;
12554;SDS011;6343;50.868;4.700;2022-12-07T00:26:44;11.73;;;8.10;;
12554;SDS011;6343;50.868;4.700;2022-12-07T00:29:18;10.87;;;7.67;;
12554;SDS011;6343;50.868;4.700;2022-12-07T00:31:44;13.00;;;9.07;;
12554;SDS011;6343;50.868;4.700;2022-12-07T00:34:15;11.67;;;8.13;;
12554;SDS011;6343;50.868;4.700;2022-12-07T00:36:41;12.50;;;8.77;;
12554;SDS011;6343;50.868;4.700;2022-12-07T00:39:07;13.47;;;8.40;;
12554;SDS011;6343;50.868;4.700;2022-12-07T00:41:33;13.63;;;9.00;;
12554;SDS011;6343;50.868;4.700;2022-12-07T00:44:00;13.20;;;8.40;;
12554;SDS011;6343;50.868;4.700;2022-12-07T00:46:26;12.23;;;8.23;;
12554;SDS011;6343;50.868;4.700;2022-12-07T00:48:52;12.23;;;8.37;;
12554;SDS011;6343;50.868;4.700;2022-12-07T00:51:20;11.73;;;8.47;;
12554;SDS011;6343;50.868;4.700;2022-12-07T00:53:46;12.47;;;8.70;;
12554;SDS011;6343;50.868;4.700;2022-12-07T00:56:16;10.67;;;8.17;;
12554;SDS011;6343;50.868;4.700;2022-12-07T00:58:43;15.00;;;8.50;;
12554;SDS011;6343;50.868;4.700;2022-12-07T01:01:10;13.83;;;9.30;;
12554;SDS011;6343;50.868;4.700;2022-12-07T01:03:36;14.03;;;8.43;;
12554;SDS011;6343;50.868;4.700;2022-12-07T01:06:03;18.03;;;8.77;;
12554;SDS011;6343;50.868;4.700;2022-12-07T01:08:29;11.63;;;7.93;;
12554;SDS011;6343;50.868;4.700;2022-12-07T01:10:59;13.07;;;8.23;;
12554;SDS011;6343;50.868;4.700;2022-12-07T01:13:26;16.77;;;8.77;;
12554;SDS011;6343;50.868;4.700;2022-12-07T01:15:55;15.97;;;8.97;;
12554;SDS011;6343;50.868;4.700;2022-12-07T01:18:21;12.43;;;8.67;;
12554;SDS011;6343;50.868;4.700;2022-12-07T01:20:56;13.40;;;8.67;;
12554;SDS011;6343;50.868;4.700;2022-12-07T01:23:22;15.67;;;8.97;;
12554;SDS011;6343;50.868;4.700;2022-12-07T01:25:53;16.40;;;8.73;;
12554;SDS011;6343;50.868;4.700;2022-12-07T01:28:20;13.83;;;8.70;;
12554;SDS011;6343;50.868;4.700;2022-12-07T01:30:54;11.37;;;8.00;;
12554;SDS011;6343;50.868;4.700;2022-12-07T01:33:20;11.37;;;8.73;;
12554;SDS011;6343;50.868;4.700;2022-12-07T01:35:46;13.40;;;9.13;;
12554;SDS011;6343;50.868;4.700;2022-12-07T01:38:12;12.00;;;9.03;;
12554;SDS011;6343;50.868;4.700;2022-12-07T01:40:38;15.73;;;9.03;;
12554;SDS011;6343;50.868;4.700;2022-12-07T01:43:09;15.80;;;9.27;;
12554;SDS011;6343;50.868;4.700;2022-12-07T01:45:40;12.90;;;8.83;;
12554;SDS011;6343;50.868;4.700;2022-12-07T01:48:07;15.97;;;10.13;;
12554;SDS011;6343;50.868;4.700;2022-12-07T01:50:34;16.83;;;9.77;;
12554;SDS011;6343;50.868;4.700;2022-12-07T01:53:01;13.93;;;9.50;;
12554;SDS011;6343;50.868;4.700;2022-12-07T01:55:29;14.43;;;9.50;;
12554;SDS011;6343;50.868;4.700;2022-12-07T01:57:55;13.83;;;9.23;;
12554;SDS011;6343;50.868;4.700;2022-12-07T02:00:22;16.60;;;9.10;;
12554;SDS011;6343;50.868;4.700;2022-12-07T02:05:14;15.47;;;9.80;;
12554;SDS011;6343;50.868;4.700;2022-12-07T02:07:41;15.80;;;10.37;;
12554;SDS011;6343;50.868;4.700;2022-12-07T02:10:20;12.57;;;9.60;;
12554;SDS011;6343;50.868;4.700;2022-12-07T02:12:50;15.57;;;10.17;;
12554;SDS011;6343;50.868;4.700;2022-12-07T02:15:19;13.50;;;10.20;;
12554;SDS011;6343;50.868;4.700;2022-12-07T02:17:49;14.20;;;10.17;;
12554;SDS011;6343;50.868;4.700;2022-12-07T02:20:20;14.90;;;9.80;;
12554;SDS011;6343;50.868;4.700;2022-12-07T02:25:47;14.87;;;10.43;;
12554;SDS011;6343;50.868;4.700;2022-12-07T02:28:37;15.57;;;10.83;;
12554;SDS011;6343;50.868;4.700;2022-12-07T02:31:21;15.27;;;10.73;;
12554;SDS011;6343;50.868;4.700;2022-12-07T02:33:50;17.37;;;10.70;;
12554;SDS011;6343;50.868;4.700;2022-12-07T02:38:55;14.90;;;10.43;;
12554;SDS011;6343;50.868;4.700;2022-12-07T02:41:25;15.47;;;10.97;;
12554;SDS011;6343;50.868;4.700;2022-12-07T02:43:56;16.07;;;10.97;;
12554;SDS011;6343;50.868;4.700;2022-12-07T02:46:26;16.00;;;10.73;;
12554;SDS011;6343;50.868;4.700;2022-12-07T02:48:52;17.30;;;10.73;;
12554;SDS011;6343;50.868;4.700;2022-12-07T02:51:20;16.00;;;10.97;;
12554;SDS011;6343;50.868;4.700;2022-12-07T02:53:47;16.03;;;10.73;;
12554;SDS011;6343;50.868;4.700;2022-12-07T03:01:58;16.47;;;11.23;;
12554;SDS011;6343;50.868;4.700;2022-12-07T03:04:00;16.87;;;11.20;;
12554;SDS011;6343;50.868;4.700;2022-12-07T03:06:31;19.23;;;11.53;;
12554;SDS011;6343;50.868;4.700;2022-12-07T03:09:04;16.00;;;11.20;;
12554;SDS011;6343;50.868;4.700;2022-12-07T03:11:35;15.70;;;10.67;;
12554;SDS011;6343;50.868;4.700;2022-12-07T03:14:26;16.73;;;9.83;;
12554;SDS011;6343;50.868;4.700;2022-12-07T03:17:02;17.07;;;10.40;;
12554;SDS011;6343;50.868;4.700;2022-12-07T03:19:31;15.90;;;11.10;;
12554;SDS011;6343;50.868;4.700;2022-12-07T03:22:02;14.43;;;10.13;;
12554;SDS011;6343;50.868;4.700;2022-12-07T03:24:34;14.93;;;10.63;;
12554;SDS011;6343;50.868;4.700;2022-12-07T03:27:03;16.87;;;10.20;;
12554;SDS011;6343;50.868;4.700;2022-12-07T03:29:33;14.23;;;10.03;;
12554;SDS011;6343;50.868;4.700;2022-12-07T03:34:56;15.73;;;10.47;;
12554;SDS011;6343;50.868;4.700;2022-12-07T03:42:36;13.70;;;10.93;;
12554;SDS011;6343;50.868;4.700;2022-12-07T03:45:02;17.63;;;11.50;;
12554;SDS011;6343;50.868;4.700;2022-12-07T03:47:30;15.40;;;10.73;;
12554;SDS011;6343;50.868;4.700;2022-12-07T03:49:58;13.83;;;10.17;;
12554;SDS011;6343;50.868;4.700;2022-12-07T03:52:37;16.83;;;11.23;;
12554;SDS011;6343;50.868;4.700;2022-12-07T03:55:06;14.70;;;11.10;;
12554;SDS011;6343;50.868;4.700;2022-12-07T03:57:34;14.30;;;9.87;;
12554;SDS011;6343;50.868;4.700;2022-12-07T04:00:03;16.23;;;11.27;;
12554;SDS011;6343;50.868;4.700;2022-12-07T04:02:29;13.07;;;9.80;;
12554;SDS011;6343;50.868;4.700;2022-12-07T04:04:56;14.67;;;10.37;;
12554;SDS011;6343;50.868;4.700;2022-12-07T04:07:22;16.07;;;11.17;;
12554;SDS011;6343;50.868;4.700;2022-12-07T04:09:48;16.40;;;10.30;;
12554;SDS011;6343;50.868;4.700;2022-12-07T04:12:14;15.73;;;10.83;;
12554;SDS011;6343;50.868;4.700;2022-12-07T04:14:40;13.03;;;9.90;;
12554;SDS011;6343;50.868;4.700;2022-12-07T04:17:06;12.93;;;10.03;;
12554;SDS011;6343;50.868;4.700;2022-12-07T04:19:33;16.13;;;10.40;;
12554;SDS011;6343;50.868;4.700;2022-12-07T04:22:00;15.83;;;10.00;;
12554;SDS011;6343;50.868;4.700;2022-12-07T04:24:26;15.07;;;9.60;;
12554;SDS011;6343;50.868;4.700;2022-12-07T04:26:53;14.13;;;9.73;;
12554;SDS011;6343;50.868;4.700;2022-12-07T04:29:20;14.60;;;9.53;;
12554;SDS011;6343;50.868;4.700;2022-12-07T04:31:46;14.23;;;10.57;;
12554;SDS011;6343;50.868;4.700;2022-12-07T04:34:15;14.90;;;10.77;;
12554;SDS011;6343;50.868;4.700;2022-12-07T04:36:41;12.07;;;9.40;;
12554;SDS011;6343;50.868;4.700;2022-12-07T04:39:09;15.43;;;9.57;;
12554;SDS011;6343;50.868;4.700;2022-12-07T04:41:39;14.53;;;9.30;;
12554;SDS011;6343;50.868;4.700;2022-12-07T04:44:05;14.53;;;9.43;;
12554;SDS011;6343;50.868;4.700;2022-12-07T04:46:32;14.33;;;9.30;;
12554;SDS011;6343;50.868;4.700;2022-12-07T04:48:59;11.27;;;8.80;;
12554;SDS011;6343;50.868;4.700;2022-12-07T04:51:26;16.63;;;9.90;;
12554;SDS011;6343;50.868;4.700;2022-12-07T04:53:52;14.00;;;9.77;;
12554;SDS011;6343;50.868;4.700;2022-12-07T04:56:19;11.73;;;8.40;;
12554;SDS011;6343;50.868;4.700;2022-12-07T04:58:45;16.47;;;9.60;;
12554;SDS011;6343;50.868;4.700;2022-12-07T05:01:12;12.90;;;9.30;;
12554;SDS011;6343;50.868;4.700;2022-12-07T05:03:38;13.13;;;9.27;;
12554;SDS011;6343;50.868;4.700;2022-12-07T05:06:05;13.03;;;8.70;;
12554;SDS011;6343;50.868;4.700;2022-12-07T05:08:32;15.13;;;9.40;;
12554;SDS011;6343;50.868;4.700;2022-12-07T05:10:58;12.30;;;8.00;;
12554;SDS011;6343;50.868;4.700;2022-12-07T05:13:25;10.90;;;8.17;;
12554;SDS011;6343;50.868;4.700;2022-12-07T05:15:51;12.17;;;8.60;;
12554;SDS011;6343;50.868;4.700;2022-12-07T05:18:17;11.57;;;8.23;;
12554;SDS011;6343;50.868;4.700;2022-12-07T05:20:43;14.07;;;8.93;;
12554;SDS011;6343;50.868;4.700;2022-12-07T05:23:10;14.00;;;8.03;;
12554;SDS011;6343;50.868;4.700;2022-12-07T05:25:37;9.50;;;7.50;;
12554;SDS011;6343;50.868;4.700;2022-12-07T05:28:03;12.33;;;8.10;;
12554;SDS011;6343;50.868;4.700;2022-12-07T05:30:30;12.53;;;8.43;;
12554;SDS011;6343;50.868;4.700;2022-12-07T05:32:56;11.30;;;7.70;;
12554;SDS011;6343;50.868;4.700;2022-12-07T05:35:22;10.77;;;7.73;;
12554;SDS011;6343;50.868;4.700;2022-12-07T05:37:48;10.53;;;7.83;;
12554;SDS011;6343;50.868;4.700;2022-12-07T05:40:14;10.73;;;8.17;;
12554;SDS011;6343;50.868;4.700;2022-12-07T05:42:41;12.27;;;7.77;;
12554;SDS011;6343;50.868;4.700;2022-12-07T05:45:08;13.80;;;8.77;;
12554;SDS011;6343;50.868;4.700;2022-12-07T05:47:34;10.00;;;7.20;;
12554;SDS011;6343;50.868;4.700;2022-12-07T05:50:01;10.37;;;7.53;;
12554;SDS011;6343;50.868;4.700;2022-12-07T05:52:27;11.87;;;7.23;;
12554;SDS011;6343;50.868;4.700;2022-12-07T05:54:53;12.03;;;8.10;;
12554;SDS011;6343;50.868;4.700;2022-12-07T05:57:19;15.20;;;7.97;;
12554;SDS011;6343;50.868;4.700;2022-12-07T05:59:45;10.10;;;7.37;;
12554;SDS011;6343;50.868;4.700;2022-12-07T06:02:12;11.27;;;7.70;;
12554;SDS011;6343;50.868;4.700;2022-12-07T06:04:42;12.67;;;7.80;;
12554;SDS011;6343;50.868;4.700;2022-12-07T06:07:09;11.27;;;7.63;;
12554;SDS011;6343;50.868;4.700;2022-12-07T06:09:35;11.57;;;7.30;;
12554;SDS011;6343;50.868;4.700;2022-12-07T06:12:02;11.27;;;7.83;;
12554;SDS011;6343;50.868;4.700;2022-12-07T06:14:47;12.97;;;8.00;;
12554;SDS011;6343;50.868;4.700;2022-12-07T06:17:13;12.00;;;8.20;;
12554;SDS011;6343;50.868;4.700;2022-12-07T06:19:39;12.17;;;7.90;;
12554;SDS011;6343;50.868;4.700;2022-12-07T06:22:05;12.73;;;8.00;;
12554;SDS011;6343;50.868;4.700;2022-12-07T06:24:32;13.67;;;8.33;;
12554;SDS011;6343;50.868;4.700;2022-12-07T06:26:59;15.27;;;8.03;;
12554;SDS011;6343;50.868;4.700;2022-12-07T06:29:25;11.03;;;8.10;;
12554;SDS011;6343;50.868;4.700;2022-12-07T06:31:51;10.90;;;7.47;;
12554;SDS011;6343;50.868;4.700;2022-12-07T06:34:18;11.33;;;7.40;;
12554;SDS011;6343;50.868;4.700;2022-12-07T06:36:45;11.43;;;8.03;;
12554;SDS011;6343;50.868;4.700;2022-12-07T06:39:16;12.20;;;7.80;;
12554;SDS011;6343;50.868;4.700;2022-12-07T06:41:42;10.57;;;8.10;;
12554;SDS011;6343;50.868;4.700;2022-12-07T06:44:08;12.87;;;7.50;;
12554;SDS011;6343;50.868;4.700;2022-12-07T06:46:34;13.23;;;8.60;;
12554;SDS011;6343;50.868;4.700;2022-12-07T06:49:01;16.60;;;7.50;;
12554;SDS011;6343;50.868;4.700;2022-12-07T06:51:27;11.77;;;8.10;;
12554;SDS011;6343;50.868;4.700;2022-12-07T06:53:53;12.80;;;8.37;;
12554;SDS011;6343;50.868;4.700;2022-12-07T06:56:19;9.63;;;7.73;;
12554;SDS011;6343;50.868;4.700;2022-12-07T06:58:45;15.33;;;8.20;;
12554;SDS011;6343;50.868;4.700;2022-12-07T07:01:15;11.57;;;7.93;;
12554;SDS011;6343;50.868;4.700;2022-12-07T07:03:42;8.30;;;6.57;;
12554;SDS011;6343;50.868;4.700;2022-12-07T07:06:08;10.20;;;7.40;;
12554;SDS011;6343;50.868;4.700;2022-12-07T07:08:35;15.23;;;7.93;;
12554;SDS011;6343;50.868;4.700;2022-12-07T07:11:01;12.07;;;8.30;;
12554;SDS011;6343;50.868;4.700;2022-12-07T07:13:27;12.57;;;7.60;;
12554;SDS011;6343;50.868;4.700;2022-12-07T07:15:53;11.60;;;7.70;;
12554;SDS011;6343;50.868;4.700;2022-12-07T07:18:20;13.00;;;8.20;;
12554;SDS011;6343;50.868;4.700;2022-12-07T07:20:46;14.50;;;8.57;;
12554;SDS011;6343;50.868;4.700;2022-12-07T07:23:12;14.50;;;9.23;;
12554;SDS011;6343;50.868;4.700;2022-12-07T07:25:38;12.33;;;8.27;;
12554;SDS011;6343;50.868;4.700;2022-12-07T07:28:04;11.90;;;8.07;;
12554;SDS011;6343;50.868;4.700;2022-12-07T07:30:30;10.87;;;8.13;;
12554;SDS011;6343;50.868;4.700;2022-12-07T07:32:57;12.27;;;7.70;;
12554;SDS011;6343;50.868;4.700;2022-12-07T07:35:24;16.40;;;8.83;;
12554;SDS011;6343;50.868;4.700;2022-12-07T07:37:50;11.03;;;7.80;;
12554;SDS011;6343;50.868;4.700;2022-12-07T07:40:16;16.30;;;7.50;;
12554;SDS011;6343;50.868;4.700;2022-12-07T07:42:42;12.50;;;7.53;;
12554;SDS011;6343;50.868;4.700;2022-12-07T07:45:09;12.17;;;7.10;;
12554;SDS011;6343;50.868;4.700;2022-12-07T07:47:35;9.53;;;7.23;;
12554;SDS011;6343;50.868;4.700;2022-12-07T07:50:01;9.97;;;7.07;;
12554;SDS011;6343;50.868;4.700;2022-12-07T07:52:27;18.20;;;7.87;;
12554;SDS011;6343;50.868;4.700;2022-12-07T07:54:53;10.70;;;6.40;;
12554;SDS011;6343;50.868;4.700;2022-12-07T07:57:19;11.50;;;6.77;;
12554;SDS011;6343;50.868;4.700;2022-12-07T07:59:45;10.97;;;6.40;;
12554;SDS011;6343;50.868;4.700;2022-12-07T08:02:13;12.70;;;7.23;;
12554;SDS011;6343;50.868;4.700;2022-12-07T08:04:39;11.73;;;6.53;;
12554;SDS011;6343;50.868;4.700;2022-12-07T08:07:05;9.73;;;6.50;;
12554;SDS011;6343;50.868;4.700;2022-12-07T08:09:32;11.90;;;6.40;;
12554;SDS011;6343;50.868;4.700;2022-12-07T08:11:58;15.80;;;7.50;;
12554;SDS011;6343;50.868;4.700;2022-12-07T08:14:24;10.57;;;6.27;;
12554;SDS011;6343;50.868;4.700;2022-12-07T08:16:52;12.30;;;6.87;;
12554;SDS011;6343;50.868;4.700;2022-12-07T08:19:18;15.30;;;7.63;;
12554;SDS011;6343;50.868;4.700;2022-12-07T08:21:44;11.30;;;6.97;;
12554;SDS011;6343;50.868;4.700;2022-12-07T08:24:10;9.93;;;5.97;;
12554;SDS011;6343;50.868;4.700;2022-12-07T08:26:36;12.30;;;6.87;;
12554;SDS011;6343;50.868;4.700;2022-12-07T08:29:02;11.53;;;6.90;;
12554;SDS011;6343;50.868;4.700;2022-12-07T08:31:29;10.90;;;6.87;;
12554;SDS011;6343;50.868;4.700;2022-12-07T08:33:55;13.23;;;6.67;;
12554;SDS011;6343;50.868;4.700;2022-12-07T08:36:22;13.83;;;6.73;;
12554;SDS011;6343;50.868;4.700;2022-12-07T08:38:48;12.17;;;6.93;;
12554;SDS011;6343;50.868;4.700;2022-12-07T08:41:14;10.20;;;6.40;;
12554;SDS011;6343;50.868;4.700;2022-12-07T08:43:40;10.40;;;6.27;;
12554;SDS011;6343;50.868;4.700;2022-12-07T08:46:25;13.00;;;6.43;;
12554;SDS011;6343;50.868;4.700;2022-12-07T08:48:53;10.80;;;6.97;;
12554;SDS011;6343;50.868;4.700;2022-12-07T08:51:20;11.13;;;6.43;;
12554;SDS011;6343;50.868;4.700;2022-12-07T08:53:47;11.70;;;6.50;;
12554;SDS011;6343;50.868;4.700;2022-12-07T08:56:14;9.37;;;6.07;;
12554;SDS011;6343;50.868;4.700;2022-12-07T08:58:40;11.33;;;7.07;;
12554;SDS011;6343;50.868;4.700;2022-12-07T09:01:06;9.87;;;6.57;;
12554;SDS011;6343;50.868;4.700;2022-12-07T09:03:32;12.80;;;6.23;;
12554;SDS011;6343;50.868;4.700;2022-12-07T09:05:58;11.47;;;6.23;;
12554;SDS011;6343;50.868;4.700;2022-12-07T09:08:30;14.03;;;6.77;;
12554;SDS011;6343;50.868;4.700;2022-12-07T09:10:56;9.10;;;5.63;;
12554;SDS011;6343;50.868;4.700;2022-12-07T09:13:22;12.30;;;6.93;;
12554;SDS011;6343;50.868;4.700;2022-12-07T09:15:49;12.87;;;6.10;;
12554;SDS011;6343;50.868;4.700;2022-12-07T09:18:15;16.63;;;6.70;;
12554;SDS011;6343;50.868;4.700;2022-12-07T09:20:41;9.60;;;6.43;;
12554;SDS011;6343;50.868;4.700;2022-12-07T09:23:07;9.87;;;6.40;;
12554;SDS011;6343;50.868;4.700;2022-12-07T09:25:34;11.47;;;6.90;;
12554;SDS011;6343;50.868;4.700;2022-12-07T09:28:00;10.30;;;6.93;;
12554;SDS011;6343;50.868;4.700;2022-12-07T09:30:26;14.07;;;6.87;;
12554;SDS011;6343;50.868;4.700;2022-12-07T09:32:53;11.47;;;6.57;;
12554;SDS011;6343;50.868;4.700;2022-12-07T09:35:19;10.07;;;7.13;;
12554;SDS011;6343;50.868;4.700;2022-12-07T09:37:46;11.10;;;6.63;;
12554;SDS011;6343;50.868;4.700;2022-12-07T09:40:12;11.43;;;6.03;;
12554;SDS011;6343;50.868;4.700;2022-12-07T09:42:39;9.87;;;6.77;;
12554;SDS011;6343;50.868;4.700;2022-12-07T09:45:14;11.30;;;6.50;;
12554;SDS011;6343;50.868;4.700;2022-12-07T09:47:40;14.37;;;6.53;;
12554;SDS011;6343;50.868;4.700;2022-12-07T09:50:14;9.90;;;6.83;;
12554;SDS011;6343;50.868;4.700;2022-12-07T09:52:41;15.97;;;7.63;;
12554;SDS011;6343;50.868;4.700;2022-12-07T09:55:12;14.30;;;7.43;;
12554;SDS011;6343;50.868;4.700;2022-12-07T09:57:39;15.23;;;7.73;;
12554;SDS011;6343;50.868;4.700;2022-12-07T10:00:13;9.87;;;5.77;;
12554;SDS011;6343;50.868;4.700;2022-12-07T10:02:56;10.63;;;6.47;;
12554;SDS011;6343;50.868;4.700;2022-12-07T10:05:56;8.90;;;6.40;;
12554;SDS011;6343;50.868;4.700;2022-12-07T10:08:15;12.37;;;6.97;;
12554;SDS011;6343;50.868;4.700;2022-12-07T10:10:42;9.43;;;6.00;;
12554;SDS011;6343;50.868;4.700;2022-12-07T10:13:10;8.73;;;6.10;;
12554;SDS011;6343;50.868;4.700;2022-12-07T10:15:50;16.10;;;6.53;;
12554;SDS011;6343;50.868;4.700;2022-12-07T10:18:18;12.60;;;6.47;;
12554;SDS011;6343;50.868;4.700;2022-12-07T10:20:45;9.93;;;6.30;;
12554;SDS011;6343;50.868;4.700;2022-12-07T10:23:15;12.33;;;6.77;;
12554;SDS011;6343;50.868;4.700;2022-12-07T10:27:26;11.67;;;3.67;;
12554;SDS011;6343;50.868;4.700;2022-12-07T10:29:55;10.27;;;5.90;;
12554;SDS011;6343;50.868;4.700;2022-12-07T10:32:41;12.67;;;5.33;;
12554;SDS011;6343;50.868;4.700;2022-12-07T10:37:42;10.67;;;5.60;;
12554;SDS011;6343;50.868;4.700;2022-12-07T10:40:30;9.57;;;5.80;;
12554;SDS011;6343;50.868;4.700;2022-12-07T10:43:00;8.13;;;5.47;;
12554;SDS011;6343;50.868;4.700;2022-12-07T10:45:26;7.97;;;5.17;;
12554;SDS011;6343;50.868;4.700;2022-12-07T10:48:07;7.40;;;4.90;;
12554;SDS011;6343;50.868;4.700;2022-12-07T10:58:07;10.90;;;7.37;;
12554;SDS011;6343;50.868;4.700;2022-12-07T11:01:03;10.43;;;4.63;;
12554;SDS011;6343;50.868;4.700;2022-12-07T11:03:29;10.60;;;5.13;;
12554;SDS011;6343;50.868;4.700;2022-12-07T11:15:08;7.10;;;4.47;;
12554;SDS011;6343;50.868;4.700;2022-12-07T11:17:07;10.07;;;4.87;;
12554;SDS011;6343;50.868;4.700;2022-12-07T11:19:49;11.67;;;4.93;;
12554;SDS011;6343;50.868;4.700;2022-12-07T11:27:41;6.63;;;3.90;;
12554;SDS011;6343;50.868;4.700;2022-12-07T11:32:49;7.40;;;2.93;;
12554;SDS011;6343;50.868;4.700;2022-12-07T11:37:49;7.53;;;3.60;;
12554;SDS011;6343;50.868;4.700;2022-12-07T11:40:18;14.60;;;4.33;;
12554;SDS011;6343;50.868;4.700;2022-12-07T11:45:26;9.30;;;4.33;;
12554;SDS011;6343;50.868;4.700;2022-12-07T11:47:58;5.90;;;3.73;;
12554;SDS011;6343;50.868;4.700;2022-12-07T11:50:33;10.03;;;3.90;;
12554;SDS011;6343;50.868;4.700;2022-12-07T11:55:43;10.37;;;3.67;;
12554;SDS011;6343;50.868;4.700;2022-12-07T12:01:03;12.63;;;4.43;;
12554;SDS011;6343;50.868;4.700;2022-12-07T12:03:34;7.13;;;3.60;;
12554;SDS011;6343;50.868;4.700;2022-12-07T12:06:02;14.50;;;4.23;;
12554;SDS011;6343;50.868;4.700;2022-12-07T12:08:30;6.77;;;3.70;;
12554;SDS011;6343;50.868;4.700;2022-12-07T12:18:53;8.60;;;4.30;;
12554;SDS011;6343;50.868;4.700;2022-12-07T12:21:27;9.50;;;4.00;;
12554;SDS011;6343;50.868;4.700;2022-12-07T12:26:21;8.03;;;4.17;;
12554;SDS011;6343;50.868;4.700;2022-12-07T12:28:55;5.53;;;4.07;;
12554;SDS011;6343;50.868;4.700;2022-12-07T12:33:56;6.67;;;4.07;;
12554;SDS011;6343;50.868;4.700;2022-12-07T12:44:37;10.40;;;4.30;;
12554;SDS011;6343;50.868;4.700;2022-12-07T12:46:55;8.00;;;4.10;;
12554;SDS011;6343;50.868;4.700;2022-12-07T12:51:49;12.77;;;3.03;;
12554;SDS011;6343;50.868;4.700;2022-12-07T12:54:19;7.00;;;3.30;;
12554;SDS011;6343;50.868;4.700;2022-12-07T12:59:21;6.80;;;3.50;;
12554;SDS011;6343;50.868;4.700;2022-12-07T13:01:49;6.07;;;3.13;;
12554;SDS011;6343;50.868;4.700;2022-12-07T13:06:48;7.37;;;2.90;;
12554;SDS011;6343;50.868;4.700;2022-12-07T13:09:24;7.83;;;3.00;;
12554;SDS011;6343;50.868;4.700;2022-12-07T13:11:56;3.97;;;2.50;;
12554;SDS011;6343;50.868;4.700;2022-12-07T13:17:08;6.83;;;2.80;;
12554;SDS011;6343;50.868;4.700;2022-12-07T13:27:40;6.27;;;4.00;;
12554;SDS011;6343;50.868;4.700;2022-12-07T13:30:16;3.20;;;2.50;;
12554;SDS011;6343;50.868;4.700;2022-12-07T13:32:43;7.60;;;2.80;;
12554;SDS011;6343;50.868;4.700;2022-12-07T13:35:29;6.07;;;2.67;;
12554;SDS011;6343;50.868;4.700;2022-12-07T13:37:55;5.97;;;2.20;;
12554;SDS011;6343;50.868;4.700;2022-12-07T13:40:22;7.13;;;2.30;;
12554;SDS011;6343;50.868;4.700;2022-12-07T13:42:48;8.27;;;2.50;;
12554;SDS011;6343;50.868;4.700;2022-12-07T13:45:26;7.07;;;2.47;;
12554;SDS011;6343;50.868;4.700;2022-12-07T13:48:14;6.40;;;2.33;;
12554;SDS011;6343;50.868;4.700;2022-12-07T13:50:41;8.47;;;2.37;;
12554;SDS011;6343;50.868;4.700;2022-12-07T13:53:11;3.53;;;2.17;;
12554;SDS011;6343;50.868;4.700;2022-12-07T13:55:38;5.23;;;2.40;;
12554;SDS011;6343;50.868;4.700;2022-12-07T13:58:09;6.10;;;2.50;;
12554;SDS011;6343;50.868;4.700;2022-12-07T14:00:36;5.40;;;2.60;;
12554;SDS011;6343;50.868;4.700;2022-12-07T14:03:25;4.10;;;2.87;;
12554;SDS011;6343;50.868;4.700;2022-12-07T14:06:03;9.83;;;2.93;;
12554;SDS011;6343;50.868;4.700;2022-12-07T14:08:29;3.23;;;2.27;;
12554;SDS011;6343;50.868;4.700;2022-12-07T14:10:56;4.50;;;2.63;;
12554;SDS011;6343;50.868;4.700;2022-12-07T14:13:28;5.23;;;2.50;;
12554;SDS011;6343;50.868;4.700;2022-12-07T14:15:55;7.70;;;2.47;;
12554;SDS011;6343;50.868;4.700;2022-12-07T14:18:27;8.37;;;2.47;;
12554;SDS011;6343;50.868;4.700;2022-12-07T14:21:13;4.23;;;1.93;;
12554;SDS011;6343;50.868;4.700;2022-12-07T14:23:40;4.60;;;1.90;;
12554;SDS011;6343;50.868;4.700;2022-12-07T14:26:08;5.20;;;1.90;;
12554;SDS011;6343;50.868;4.700;2022-12-07T14:28:36;5.90;;;2.23;;
12554;SDS011;6343;50.868;4.700;2022-12-07T14:31:03;8.60;;;2.50;;
12554;SDS011;6343;50.868;4.700;2022-12-07T14:33:29;2.70;;;1.50;;
12554;SDS011;6343;50.868;4.700;2022-12-07T14:35:56;4.37;;;2.37;;
12554;SDS011;6343;50.868;4.700;2022-12-07T14:38:23;15.70;;;2.33;;
12554;SDS011;6343;50.868;4.700;2022-12-07T14:40:49;3.73;;;2.13;;
12554;SDS011;6343;50.868;4.700;2022-12-07T14:43:16;6.33;;;2.47;;
12554;SDS011;6343;50.868;4.700;2022-12-07T14:45:43;5.50;;;3.03;;
12554;SDS011;6343;50.868;4.700;2022-12-07T14:48:13;4.17;;;3.20;;
12554;SDS011;6343;50.868;4.700;2022-12-07T14:50:48;5.30;;;3.40;;
12554;SDS011;6343;50.868;4.700;2022-12-07T14:53:16;3.97;;;2.97;;
12554;SDS011;6343;50.868;4.700;2022-12-07T14:55:42;5.37;;;3.40;;
12554;SDS011;6343;50.868;4.700;2022-12-07T14:58:15;4.90;;;3.43;;
12554;SDS011;6343;50.868;4.700;2022-12-07T15:00:42;3.50;;;2.43;;
12554;SDS011;6343;50.868;4.700;2022-12-07T15:03:08;5.30;;;3.00;;
12554;SDS011;6343;50.868;4.700;2022-12-07T15:05:34;3.93;;;2.47;;
12554;SDS011;6343;50.868;4.700;2022-12-07T15:08:01;4.60;;;2.50;;
12554;SDS011;6343;50.868;4.700;2022-12-07T15:10:29;5.67;;;2.30;;
12554;SDS011;6343;50.868;4.700;2022-12-07T15:13:00;2.90;;;2.47;;
12554;SDS011;6343;50.868;4.700;2022-12-07T15:15:49;3.63;;;2.00;;
12554;SDS011;6343;50.868;4.700;2022-12-07T15:18:15;5.30;;;2.80;;
12554;SDS011;6343;50.868;4.700;2022-12-07T15:20:42;3.90;;;2.27;;
12554;SDS011;6343;50.868;4.700;2022-12-07T15:23:08;5.37;;;2.87;;
12554;SDS011;6343;50.868;4.700;2022-12-07T15:25:34;4.63;;;2.50;;
12554;SDS011;6343;50.868;4.700;2022-12-07T15:28:00;7.70;;;2.33;;
12554;SDS011;6343;50.868;4.700;2022-12-07T15:30:26;3.50;;;2.43;;
12554;SDS011;6343;50.868;4.700;2022-12-07T15:32:52;5.37;;;2.57;;
12554;SDS011;6343;50.868;4.700;2022-12-07T15:35:19;5.00;;;2.60;;
12554;SDS011;6343;50.868;4.700;2022-12-07T15:37:45;4.53;;;2.40;;
12554;SDS011;6343;50.868;4.700;2022-12-07T15:40:11;2.90;;;2.20;;
12554;SDS011;6343;50.868;4.700;2022-12-07T15:42:37;3.37;;;2.57;;
12554;SDS011;6343;50.868;4.700;2022-12-07T15:45:04;3.40;;;3.00;;
12554;SDS011;6343;50.868;4.700;2022-12-07T15:47:34;5.93;;;3.00;;
12554;SDS011;6343;50.868;4.700;2022-12-07T15:50:02;6.00;;;3.13;;
12554;SDS011;6343;50.868;4.700;2022-12-07T15:52:29;5.90;;;3.23;;
12554;SDS011;6343;50.868;4.700;2022-12-07T15:54:55;3.97;;;3.13;;
12554;SDS011;6343;50.868;4.700;2022-12-07T15:57:21;4.83;;;3.10;;
12554;SDS011;6343;50.868;4.700;2022-12-07T15:59:47;6.03;;;3.20;;
12554;SDS011;6343;50.868;4.700;2022-12-07T16:02:13;5.87;;;3.93;;
12554;SDS011;6343;50.868;4.700;2022-12-07T16:04:40;6.17;;;3.87;;
12554;SDS011;6343;50.868;4.700;2022-12-07T16:07:06;12.00;;;4.07;;
12554;SDS011;6343;50.868;4.700;2022-12-07T16:09:32;12.13;;;4.13;;
12554;SDS011;6343;50.868;4.700;2022-12-07T16:11:58;7.77;;;4.33;;
12554;SDS011;6343;50.868;4.700;2022-12-07T16:14:24;9.23;;;4.03;;
12554;SDS011;6343;50.868;4.700;2022-12-07T16:16:50;5.43;;;3.17;;
12554;SDS011;6343;50.868;4.700;2022-12-07T16:19:16;5.67;;;3.43;;
12554;SDS011;6343;50.868;4.700;2022-12-07T16:21:42;5.83;;;3.60;;
12554;SDS011;6343;50.868;4.700;2022-12-07T16:24:08;6.80;;;3.37;;
12554;SDS011;6343;50.868;4.700;2022-12-07T16:26:35;6.87;;;3.90;;
12554;SDS011;6343;50.868;4.700;2022-12-07T16:29:01;14.70;;;7.77;;
12554;SDS011;6343;50.868;4.700;2022-12-07T16:31:27;12.17;;;7.23;;
12554;SDS011;6343;50.868;4.700;2022-12-07T16:33:54;6.77;;;4.53;;
12554;SDS011;6343;50.868;4.700;2022-12-07T16:36:21;8.87;;;4.50;;
12554;SDS011;6343;50.868;4.700;2022-12-07T16:38:49;10.43;;;5.23;;